createdAt,value
2023-02-08T00:00:44.738Z,92.85
2023-02-08T00:03:13.674Z,92.66
2023-02-08T00:05:40.361Z,92.78
2023-02-08T00:08:07.849Z,93.01
2023-02-08T00:10:34.772Z,92.80
2023-02-08T00:13:01.934Z,92.94
2023-02-08T00:15:28.721Z,93.18
2023-02-08T00:17:55.436Z,93.19
2023-02-08T00:20:22.136Z,93.17
2023-02-08T00:22:48.815Z,92.99
2023-02-08T00:25:15.512Z,93.36
2023-02-08T00:27:43.375Z,93.28
2023-02-08T00:30:10.675Z,93.11
2023-02-08T00:32:37.348Z,93.23
2023-02-08T00:35:04.193Z,93.53
2023-02-08T00:37:30.977Z,93.25
2023-02-08T00:40:00.058Z,93.46
2023-02-08T00:42:27.780Z,93.48
2023-02-08T00:44:54.454Z,93.60
2023-02-08T00:47:21.739Z,93.60
2023-02-08T00:49:48.416Z,93.88
2023-02-08T00:52:15.238Z,93.72
2023-02-08T00:54:42.446Z,93.66
2023-02-08T00:57:09.440Z,93.92
2023-02-08T00:59:36.125Z,93.77
2023-02-08T01:02:02.957Z,93.96
2023-02-08T01:04:29.603Z,93.92
2023-02-08T01:06:56.284Z,93.91
2023-02-08T01:09:23.200Z,93.89
2023-02-08T01:11:50.032Z,93.87
2023-02-08T01:14:16.848Z,94.08
2023-02-08T01:16:43.624Z,94.03
2023-02-08T01:19:10.698Z,94.28
2023-02-08T01:21:41.042Z,94.29
2023-02-08T01:24:08.682Z,94.13
2023-02-08T01:26:35.808Z,94.29
2023-02-08T01:29:03.730Z,94.44
2023-02-08T01:31:36.130Z,94.56
2023-02-08T01:34:04.986Z,94.59
2023-02-08T01:36:33.129Z,94.38
2023-02-08T01:38:59.991Z,94.54
2023-02-08T01:41:29.773Z,94.75
2023-02-08T01:44:03.741Z,94.48
2023-02-08T01:46:31.065Z,94.57
2023-02-08T01:49:02.939Z,94.54
2023-02-08T01:51:34.318Z,94.56
2023-02-08T01:54:03.652Z,94.73
2023-02-08T01:56:36.354Z,94.91
2023-02-08T01:59:06.874Z,94.66
2023-02-08T02:01:34.612Z,94.75
2023-02-08T02:04:04.964Z,94.82
2023-02-08T02:06:35.981Z,95.00
2023-02-08T02:09:25.497Z,95.00
2023-02-08T02:11:54.461Z,95.16
2023-02-08T02:14:21.845Z,94.91
2023-02-08T02:16:48.888Z,95.06
2023-02-08T02:19:42.440Z,94.74
2023-02-08T02:22:54.929Z,95.17
2023-02-08T02:25:56.695Z,95.32
2023-02-08T02:28:26.142Z,95.29
2023-02-08T02:30:58.520Z,95.11
2023-02-08T02:33:33.040Z,95.16
2023-02-08T02:36:32.696Z,95.19
2023-02-08T02:39:50.038Z,95.07
2023-02-08T02:42:35.427Z,95.02
2023-02-08T02:45:36.890Z,95.18
2023-02-08T02:48:17.416Z,95.41
2023-02-08T02:50:49.224Z,95.68
2023-02-08T02:53:34.308Z,95.40
2023-02-08T02:56:24.589Z,95.15
2023-02-08T02:58:53.340Z,95.20
2023-02-08T03:01:30.169Z,95.31
2023-02-08T03:03:57.220Z,95.30
2023-02-08T03:07:02.366Z,95.11
2023-02-08T03:10:06.299Z,95.25
2023-02-08T03:13:04.836Z,95.09
2023-02-08T03:15:41.023Z,95.38
2023-02-08T03:18:26.621Z,95.05
2023-02-08T03:21:18.107Z,95.46
2023-02-08T03:24:07.630Z,95.37
2023-02-08T03:26:46.139Z,95.19
2023-02-08T03:29:58.735Z,95.08
2023-02-08T03:32:25.363Z,94.67
2023-02-08T03:35:30.737Z,94.65
2023-02-08T03:38:22.160Z,95.01
2023-02-08T03:40:53.764Z,94.57
2023-02-08T03:43:35.819Z,94.59
2023-02-08T03:46:11.577Z,94.76
2023-02-08T03:48:40.833Z,94.45
2023-02-08T03:51:09.392Z,94.61
2023-02-08T03:53:40.545Z,94.35
2023-02-08T03:56:15.613Z,94.06
2023-02-08T03:58:50.272Z,94.03
2023-02-08T04:01:25.387Z,94.27
2023-02-08T04:03:54.054Z,94.04
2023-02-08T04:06:22.232Z,94.15
2023-02-08T04:08:49.338Z,94.32
2023-02-08T04:11:16.632Z,94.19
2023-02-08T04:13:43.289Z,94.05
2023-02-08T04:16:12.426Z,94.52
2023-02-08T04:18:39.381Z,94.08
2023-02-08T04:21:06.212Z,94.45
2023-02-08T04:23:32.858Z,94.02
2023-02-08T04:25:59.562Z,94.21
2023-02-08T04:28:26.254Z,94.41
2023-02-08T04:30:56.812Z,94.11
2023-02-08T04:33:23.558Z,94.24
2023-02-08T04:35:50.240Z,94.31
2023-02-08T04:38:16.964Z,94.54
2023-02-08T04:40:43.783Z,94.18
2023-02-08T04:43:10.512Z,94.31
2023-02-08T04:45:37.782Z,94.47
2023-02-08T04:48:07.127Z,94.59
2023-02-08T04:50:35.383Z,94.37
2023-02-08T04:53:02.110Z,94.58
2023-02-08T04:55:28.923Z,94.71
2023-02-08T04:57:55.710Z,94.55
2023-02-08T05:00:22.556Z,94.84
2023-02-08T05:02:54.374Z,94.91
2023-02-08T05:05:21.468Z,94.59
2023-02-08T05:07:48.082Z,94.75
2023-02-08T05:10:15.080Z,94.78
2023-02-08T05:12:41.816Z,94.68
2023-02-08T05:15:08.994Z,94.86
2023-02-08T05:17:35.750Z,94.83
2023-02-08T05:20:03.538Z,95.01
2023-02-08T05:22:30.289Z,94.95
2023-02-08T05:24:56.978Z,94.62
2023-02-08T05:27:23.706Z,94.68
2023-02-08T05:29:50.406Z,94.77
2023-02-08T05:32:17.217Z,94.83
2023-02-08T05:34:44.229Z,94.59
2023-02-08T05:37:11.191Z,94.74
2023-02-08T05:39:38.039Z,94.45
2023-02-08T05:42:04.694Z,94.72
2023-02-08T05:44:31.348Z,94.53
2023-02-08T05:46:58.082Z,94.65
2023-02-08T05:49:24.935Z,94.48
2023-02-08T05:51:51.610Z,94.46
2023-02-08T05:54:18.580Z,94.42
2023-02-08T05:56:45.316Z,94.20
2023-02-08T05:59:11.997Z,94.51
2023-02-08T06:01:38.900Z,94.29
2023-02-08T06:04:05.959Z,94.38
2023-02-08T06:06:32.744Z,94.32
2023-02-08T06:08:59.471Z,94.27
2023-02-08T06:11:26.101Z,94.10
2023-02-08T06:13:52.788Z,94.07
2023-02-08T06:16:20.125Z,93.97
2023-02-08T06:18:47.900Z,94.38
2023-02-08T06:21:14.539Z,94.41
2023-02-08T06:23:41.381Z,94.26
2023-02-08T06:26:08.224Z,94.24
2023-02-08T06:28:34.890Z,94.40
2023-02-08T06:31:01.580Z,93.92
2023-02-08T06:33:28.250Z,94.11
2023-02-08T06:35:55.058Z,93.73
2023-02-08T06:38:21.729Z,93.91
2023-02-08T06:40:49.416Z,93.96
2023-02-08T06:43:16.980Z,93.64
2023-02-08T06:45:47.605Z,93.78
2023-02-08T06:48:14.963Z,93.84
2023-02-08T06:50:42.071Z,93.73
2023-02-08T06:53:09.025Z,94.01
2023-02-08T06:55:35.762Z,94.23
2023-02-08T06:58:02.398Z,94.02
2023-02-08T07:00:29.256Z,94.35
2023-02-08T07:02:56.039Z,93.93
2023-02-08T07:05:22.736Z,94.11
2023-02-08T07:07:49.474Z,94.08
2023-02-08T07:10:16.674Z,93.96
2023-02-08T07:12:43.468Z,94.34
2023-02-08T07:15:13.242Z,94.13
2023-02-08T07:17:40.424Z,94.07
2023-02-08T07:20:07.713Z,94.25
2023-02-08T07:22:34.441Z,93.78
2023-02-08T07:25:01.242Z,94.08
2023-02-08T07:27:28.146Z,94.01
2023-02-08T07:29:54.879Z,93.95
2023-02-08T07:32:21.611Z,94.13
2023-02-08T07:34:48.322Z,94.45
2023-02-08T07:37:15.008Z,94.53
2023-02-08T07:39:41.673Z,94.12
2023-02-08T07:42:09.797Z,94.21
2023-02-08T07:44:39.346Z,94.32
2023-02-08T07:47:06.841Z,93.87
2023-02-08T07:49:33.948Z,94.03
2023-02-08T07:52:01.644Z,94.33
2023-02-08T07:54:28.937Z,93.99
2023-02-08T07:56:56.127Z,93.97
2023-02-08T07:59:22.910Z,94.17
2023-02-08T08:01:49.726Z,94.08
2023-02-08T08:04:16.705Z,93.91
2023-02-08T08:06:43.454Z,93.81
2023-02-08T08:09:10.163Z,93.90
2023-02-08T08:11:36.888Z,93.78
2023-02-08T08:14:03.710Z,93.64
2023-02-08T08:16:30.463Z,94.03
2023-02-08T08:18:57.130Z,93.80
2023-02-08T08:21:23.899Z,93.88
2023-02-08T08:23:50.801Z,94.04
2023-02-08T08:26:20.348Z,93.67
2023-02-08T08:28:47.905Z,93.95
2023-02-08T08:31:22.569Z,93.78
2023-02-08T08:33:50.363Z,93.54
2023-02-08T08:36:18.524Z,93.32
2023-02-08T08:38:45.295Z,93.38
2023-02-08T08:41:15.655Z,93.24
2023-02-08T08:43:42.759Z,93.12
2023-02-08T08:46:10.725Z,92.77
2023-02-08T08:48:39.079Z,92.69
2023-02-08T08:51:06.901Z,92.33
2023-02-08T08:53:35.038Z,92.16
2023-02-08T08:56:05.157Z,92.13
2023-02-08T08:58:33.272Z,91.75
2023-02-08T09:01:00.969Z,91.60
2023-02-08T09:03:28.917Z,91.24
2023-02-08T09:05:56.410Z,91.23
2023-02-08T09:08:23.238Z,91.08
2023-02-08T09:10:50.465Z,91.00
2023-02-08T09:13:19.903Z,91.07
2023-02-08T09:15:48.105Z,90.79
2023-02-08T09:18:14.898Z,90.72
2023-02-08T09:20:42.073Z,90.72
2023-02-08T09:23:09.064Z,90.42
2023-02-08T09:25:37.132Z,90.48
2023-02-08T09:28:05.075Z,90.19
2023-02-08T09:30:32.216Z,89.73
2023-02-08T09:32:58.989Z,89.73
2023-02-08T09:35:25.818Z,89.56
2023-02-08T09:37:57.980Z,89.64
2023-02-08T09:40:26.695Z,89.28
2023-02-08T09:43:11.349Z,89.36
2023-02-08T09:45:58.994Z,89.26
2023-02-08T09:48:31.847Z,88.97
2023-02-08T09:51:11.168Z,88.80
2023-02-08T09:53:44.797Z,88.59
2023-02-08T09:56:14.469Z,88.23
2023-02-08T09:58:50.909Z,88.25
2023-02-08T10:01:25.538Z,87.96
2023-02-08T10:03:57.511Z,87.64
2023-02-08T10:06:24.312Z,87.18
2023-02-08T10:08:53.515Z,86.97
2023-02-08T10:11:42.025Z,86.87
2023-02-08T10:14:21.029Z,86.81
2023-02-08T10:17:02.669Z,86.74
2023-02-08T10:19:55.963Z,86.71
2023-02-08T10:22:47.079Z,86.51
2023-02-08T10:25:30.321Z,86.33
2023-02-08T10:28:18.522Z,86.02
2023-02-08T10:31:03.431Z,85.88
2023-02-08T10:33:41.801Z,85.69
2023-02-08T10:36:20.310Z,85.71
2023-02-08T10:38:51.245Z,85.35
2023-02-08T10:41:25.100Z,84.99
2023-02-08T10:44:22.721Z,85.08
2023-02-08T10:47:19.978Z,84.79
2023-02-08T10:50:05.316Z,84.58
2023-02-08T10:52:32.658Z,84.31
2023-02-08T10:54:59.503Z,84.08
2023-02-08T10:57:31.011Z,83.78
2023-02-08T11:00:04.455Z,83.70
2023-02-08T11:02:39.627Z,83.24
2023-02-08T11:05:10.586Z,82.97
2023-02-08T11:07:40.450Z,82.72
2023-02-08T11:10:19.084Z,82.23
2023-02-08T11:12:58.121Z,81.81
2023-02-08T11:15:29.680Z,81.05
2023-02-08T11:18:01.957Z,80.88
2023-02-08T11:20:36.830Z,80.42
2023-02-08T11:23:16.750Z,80.09
2023-02-08T11:25:43.685Z,79.65
2023-02-08T11:28:42.932Z,79.47
2023-02-08T11:31:20.956Z,79.10
2023-02-08T11:34:02.939Z,78.85
2023-02-08T11:36:32.724Z,78.58
2023-02-08T11:39:03.420Z,78.25
2023-02-08T11:41:30.791Z,78.03
2023-02-08T11:44:02.451Z,77.74
2023-02-08T11:46:32.543Z,77.73
2023-02-08T11:48:59.294Z,77.61
2023-02-08T11:51:30.426Z,77.51
2023-02-08T11:53:58.027Z,77.41
2023-02-08T11:56:28.106Z,77.09
2023-02-08T11:59:03.753Z,76.77
2023-02-08T12:01:36.502Z,76.50
2023-02-08T12:04:06.946Z,76.23
2023-02-08T12:07:08.620Z,75.65
2023-02-08T12:09:53.881Z,75.32
2023-02-08T12:12:39.740Z,74.77
2023-02-08T12:15:18.566Z,74.11
2023-02-08T12:18:03.809Z,73.82
2023-02-08T12:20:47.802Z,73.88
2023-02-08T12:23:25.029Z,73.21
2023-02-08T12:26:39.887Z,72.76
2023-02-08T12:29:33.136Z,72.62
2023-02-08T12:32:43.467Z,72.58
2023-02-08T12:35:43.574Z,72.21
2023-02-08T12:38:53.305Z,72.13
2023-02-08T12:41:41.441Z,72.12
2023-02-08T12:44:39.803Z,72.08
2023-02-08T12:48:03.093Z,71.93
2023-02-08T12:50:36.105Z,72.19
2023-02-08T12:53:14.460Z,71.93
2023-02-08T12:55:42.980Z,71.98
2023-02-08T12:58:39.625Z,71.64
2023-02-08T13:01:14.167Z,71.62
2023-02-08T13:04:13.818Z,71.59
2023-02-08T13:06:49.579Z,71.42
2023-02-08T13:09:31.455Z,71.47
2023-02-08T13:12:14.094Z,71.15
2023-02-08T13:14:52.444Z,70.90
2023-02-08T13:17:26.207Z,70.98
2023-02-08T13:20:05.258Z,70.63
2023-02-08T13:22:37.369Z,70.17
2023-02-08T13:25:08.682Z,69.95
2023-02-08T13:27:39.673Z,69.51
2023-02-08T13:30:07.255Z,69.41
2023-02-08T13:32:44.209Z,69.37
2023-02-08T13:35:17.908Z,69.02
2023-02-08T13:37:52.587Z,69.05
2023-02-08T13:40:28.712Z,68.82
2023-02-08T13:43:09.115Z,68.42
2023-02-08T13:45:43.684Z,68.00
2023-02-08T13:48:17.619Z,67.38
2023-02-08T13:50:52.885Z,67.30
2023-02-08T13:53:39.531Z,67.40
2023-02-08T13:56:11.204Z,67.03
2023-02-08T13:58:50.195Z,66.89
2023-02-08T14:01:21.713Z,66.90
2023-02-08T14:04:07.286Z,66.60
2023-02-08T14:06:37.329Z,66.75
2023-02-08T14:09:27.347Z,66.73
2023-02-08T14:12:01.777Z,66.67
2023-02-08T14:14:36.480Z,66.62
2023-02-08T14:17:09.233Z,66.49
2023-02-08T14:19:38.950Z,66.60
2023-02-08T14:22:16.835Z,66.22
2023-02-08T14:24:48.430Z,66.54
2023-02-08T14:27:42.804Z,66.20
2023-02-08T14:30:34.391Z,66.37
2023-02-08T14:33:07.565Z,66.58
2023-02-08T14:35:37.812Z,66.57
2023-02-08T14:38:19.693Z,66.74
2023-02-08T14:40:49.872Z,66.98
2023-02-08T14:43:19.585Z,67.18
2023-02-08T14:45:49.677Z,67.25
2023-02-08T14:48:48.820Z,67.29
2023-02-08T14:51:24.361Z,67.37
2023-02-08T14:54:01.763Z,67.76
2023-02-08T14:56:32.519Z,67.80
2023-02-08T14:59:07.696Z,67.86
2023-02-08T15:02:01.594Z,67.86
2023-02-08T15:04:31.006Z,68.02
2023-02-08T15:07:29.796Z,67.95
2023-02-08T15:09:57.796Z,68.03
2023-02-08T15:12:34.490Z,68.10
2023-02-08T15:15:03.776Z,68.31
2023-02-08T15:17:49.714Z,68.33
2023-02-08T15:20:29.874Z,68.60
2023-02-08T15:23:21.043Z,68.70
2023-02-08T15:26:21.491Z,68.76
2023-02-08T15:28:48.237Z,68.98
2023-02-08T15:31:18.323Z,69.07
2023-02-08T15:33:46.306Z,69.13
2023-02-08T15:36:21.743Z,69.11
2023-02-08T15:38:48.914Z,69.24
2023-02-08T15:41:25.453Z,69.28
2023-02-08T15:44:02.140Z,69.14
2023-02-08T15:46:30.914Z,69.36
2023-02-08T15:48:59.383Z,69.41
2023-02-08T15:51:27.578Z,69.30
2023-02-08T15:53:56.483Z,69.30
2023-02-08T15:56:38.707Z,69.34
2023-02-08T15:59:13.206Z,69.41
2023-02-08T16:01:40.136Z,69.44
2023-02-08T16:04:12.494Z,69.56
2023-02-08T16:06:46.832Z,69.57
2023-02-08T16:09:18.936Z,69.59
2023-02-08T16:11:50.109Z,69.69
2023-02-08T16:14:19.448Z,69.84
2023-02-08T16:16:52.877Z,70.08
2023-02-08T16:19:32.747Z,69.84
2023-02-08T16:22:21.299Z,70.28
2023-02-08T16:24:50.906Z,70.38
2023-02-08T16:27:30.334Z,70.51
2023-02-08T16:29:58.111Z,70.55
2023-02-08T16:32:39.782Z,70.70
2023-02-08T16:35:37.874Z,70.86
2023-02-08T16:38:09.230Z,71.02
2023-02-08T16:40:59.125Z,71.04
2023-02-08T16:43:28.288Z,71.01
2023-02-08T16:46:17.689Z,71.36
2023-02-08T16:48:50.509Z,71.41
2023-02-08T16:51:21.993Z,71.69
2023-02-08T16:53:52.086Z,71.64
2023-02-08T16:56:19.239Z,71.75
2023-02-08T16:58:46.271Z,72.04
2023-02-08T17:01:14.356Z,71.98
2023-02-08T17:03:42.139Z,72.20
2023-02-08T17:06:23.978Z,72.11
2023-02-08T17:08:50.843Z,72.24
2023-02-08T17:11:17.609Z,72.34
2023-02-08T17:13:44.398Z,72.65
2023-02-08T17:16:20.365Z,72.68
2023-02-08T17:18:48.541Z,72.74
2023-02-08T17:21:15.991Z,72.97
2023-02-08T17:23:43.788Z,73.00
2023-02-08T17:26:13.268Z,72.92
2023-02-08T17:28:40.395Z,72.89
2023-02-08T17:31:07.385Z,73.21
2023-02-08T17:33:37.114Z,73.26
2023-02-08T17:36:04.123Z,73.59
2023-02-08T17:38:30.953Z,73.58
2023-02-08T17:41:00.316Z,73.63
2023-02-08T17:43:27.129Z,73.64
2023-02-08T17:45:53.877Z,73.78
2023-02-08T17:48:20.778Z,73.93
2023-02-08T17:50:52.002Z,74.06
2023-02-08T17:53:19.374Z,74.25
2023-02-08T17:55:46.770Z,74.36
2023-02-08T17:58:14.180Z,74.40
2023-02-08T18:00:41.396Z,74.70
2023-02-08T18:03:08.440Z,74.74
2023-02-08T18:05:35.512Z,74.67
2023-02-08T18:08:02.595Z,74.92
2023-02-08T18:10:30.354Z,75.11
2023-02-08T18:12:57.100Z,75.08
2023-02-08T18:15:24.243Z,75.22
2023-02-08T18:17:51.053Z,75.34
2023-02-08T18:20:18.294Z,75.43
2023-02-08T18:22:45.697Z,75.45
2023-02-08T18:25:14.503Z,75.56
2023-02-08T18:27:42.363Z,75.66
2023-02-08T18:30:10.642Z,75.69
2023-02-08T18:32:37.419Z,75.88
2023-02-08T18:35:06.628Z,75.88
2023-02-08T18:37:33.866Z,75.98
2023-02-08T18:40:02.036Z,76.04
2023-02-08T18:42:31.838Z,76.06
2023-02-08T18:44:58.734Z,76.37
2023-02-08T18:47:25.518Z,76.13
2023-02-08T18:49:56.221Z,76.39
2023-02-08T18:52:23.942Z,76.48
2023-02-08T18:54:51.324Z,76.55
2023-02-08T18:57:18.555Z,76.75
2023-02-08T18:59:45.525Z,76.66
2023-02-08T19:02:18.872Z,77.04
2023-02-08T19:04:45.687Z,76.83
2023-02-08T19:07:14.495Z,76.87
2023-02-08T19:09:41.391Z,76.93
2023-02-08T19:12:09.245Z,77.09
2023-02-08T19:14:36.504Z,77.18
2023-02-08T19:17:03.371Z,77.27
2023-02-08T19:19:30.174Z,77.36
2023-02-08T19:21:56.987Z,76.98
2023-02-08T19:24:24.008Z,77.53
2023-02-08T19:26:50.796Z,77.65
2023-02-08T19:29:21.965Z,77.72
2023-02-08T19:31:50.416Z,77.70
2023-02-08T19:34:18.473Z,77.81
2023-02-08T19:36:52.084Z,77.97
2023-02-08T19:39:27.171Z,77.85
2023-02-08T19:41:54.351Z,78.14
2023-02-08T19:44:21.898Z,78.16
2023-02-08T19:46:51.425Z,78.15
2023-02-08T19:49:18.564Z,78.35
2023-02-08T19:51:45.835Z,78.39
2023-02-08T19:54:15.458Z,78.66
2023-02-08T19:56:42.283Z,78.70
2023-02-08T19:59:19.683Z,78.97
2023-02-08T20:01:47.538Z,79.08
2023-02-08T20:04:14.917Z,79.16
2023-02-08T20:06:41.912Z,79.33
2023-02-08T20:09:08.750Z,79.36
2023-02-08T20:11:51.253Z,79.48
2023-02-08T20:14:24.154Z,79.47
2023-02-08T20:16:52.644Z,79.66
2023-02-08T20:19:19.977Z,79.67
2023-02-08T20:21:46.866Z,79.81
2023-02-08T20:24:14.052Z,79.88
2023-02-08T20:26:44.620Z,80.00
2023-02-08T20:29:12.955Z,80.04
2023-02-08T20:31:42.746Z,80.19
2023-02-08T20:34:13.225Z,80.42
2023-02-08T20:36:49.630Z,80.46
2023-02-08T20:39:21.829Z,80.54
2023-02-08T20:41:48.767Z,80.92
2023-02-08T20:44:18.384Z,81.35
2023-02-08T20:46:46.646Z,81.68
2023-02-08T20:49:15.361Z,82.07
2023-02-08T20:51:43.381Z,82.49
2023-02-08T20:54:11.133Z,82.92
2023-02-08T20:56:40.221Z,83.17
2023-02-08T20:59:09.069Z,83.60
2023-02-08T21:01:36.695Z,83.85
2023-02-08T21:04:04.527Z,84.05
2023-02-08T21:06:34.048Z,84.23
2023-02-08T21:09:05.905Z,84.53
2023-02-08T21:11:34.691Z,84.66
2023-02-08T21:14:02.116Z,84.96
2023-02-08T21:16:29.873Z,85.19
2023-02-08T21:18:57.307Z,85.55
2023-02-08T21:21:24.773Z,85.65
2023-02-08T21:23:51.669Z,85.82
2023-02-08T21:26:20.868Z,86.00
2023-02-08T21:28:53.302Z,85.92
2023-02-08T21:31:22.329Z,86.25
2023-02-08T21:33:50.259Z,86.47
2023-02-08T21:36:23.203Z,86.66
2023-02-08T21:38:50.372Z,86.67
2023-02-08T21:41:23.166Z,86.91
2023-02-08T21:43:50.978Z,86.93
2023-02-08T21:46:19.037Z,86.83
2023-02-08T21:49:06.434Z,86.83
2023-02-08T21:51:51.903Z,87.14
2023-02-08T21:54:39.508Z,87.12
2023-02-08T21:57:12.078Z,87.21
2023-02-08T21:59:38.971Z,87.25
2023-02-08T22:02:12.605Z,87.31
2023-02-08T22:04:39.287Z,87.40
2023-02-08T22:07:06.064Z,87.58
2023-02-08T22:09:32.919Z,87.76
2023-02-08T22:11:59.751Z,87.93
2023-02-08T22:14:26.574Z,87.93
2023-02-08T22:16:53.284Z,88.22
2023-02-08T22:19:20.056Z,88.14
2023-02-08T22:21:46.841Z,88.24
2023-02-08T22:24:13.614Z,88.32
2023-02-08T22:26:40.399Z,88.50
2023-02-08T22:29:07.110Z,88.77
2023-02-08T22:31:33.976Z,88.79
2023-02-08T22:34:00.946Z,89.00
2023-02-08T22:36:27.757Z,89.00
2023-02-08T22:38:54.693Z,89.14
2023-02-08T22:41:21.897Z,89.36
2023-02-08T22:43:49.369Z,89.55
2023-02-08T22:46:16.295Z,89.44
2023-02-08T22:48:43.006Z,89.52
2023-02-08T22:51:14.502Z,89.62
2023-02-08T22:53:41.357Z,89.69
2023-02-08T22:56:08.155Z,89.65
2023-02-08T22:58:35.496Z,89.59
2023-02-08T23:01:02.305Z,89.84
2023-02-08T23:03:29.058Z,89.67
2023-02-08T23:05:55.771Z,89.85
2023-02-08T23:08:23.513Z,89.77
2023-02-08T23:10:57.593Z,89.80
2023-02-08T23:13:24.310Z,89.72
2023-02-08T23:15:51.242Z,89.74
2023-02-08T23:18:18.218Z,90.01
2023-02-08T23:20:45.208Z,90.05
2023-02-08T23:23:12.119Z,89.92
2023-02-08T23:25:40.431Z,89.68
2023-02-08T23:28:08.976Z,89.81
2023-02-08T23:30:39.207Z,89.71
2023-02-08T23:33:06.063Z,89.90
2023-02-08T23:35:33.019Z,89.89
2023-02-08T23:38:00.067Z,90.15
2023-02-08T23:40:27.012Z,90.02
2023-02-08T23:42:53.744Z,89.96
2023-02-08T23:45:20.587Z,89.71
2023-02-08T23:47:49.423Z,89.87
2023-02-08T23:50:16.202Z,90.05
2023-02-08T23:52:42.977Z,89.94
2023-02-08T23:55:10.106Z,89.78
2023-02-08T23:57:37.956Z,90.22
